sensor_id;sensor_type;location;lat;lon;timestamp;pressure;altitude;pressure_sealevel;temperature;humidity
23616;BME280;11985;49.404;7.734;2023-10-08T00:00:46;98170.09;;;14.09;100.00
23616;BME280;11985;49.404;7.734;2023-10-08T00:05:49;98184.59;;;14.00;100.00
23616;BME280;11985;49.404;7.734;2023-10-08T00:10:51;98175.63;;;13.94;100.00
23616;BME280;11985;49.404;7.734;2023-10-08T00:15:55;98175.63;;;13.88;100.00
23616;BME280;11985;49.404;7.734;2023-10-08T00:20:57;98187.44;;;13.79;100.00
23616;BME280;11985;49.404;7.734;2023-10-08T00:26:16;98187.63;;;13.70;100.00
23616;BME280;11985;49.404;7.734;2023-10-08T00:31:28;98188.88;;;13.61;100.00
23616;BME280;11985;49.404;7.734;2023-10-08T00:36:38;98182.94;;;13.46;100.00
23616;BME280;11985;49.404;7.734;2023-10-08T00:41:40;98188.00;;;13.28;100.00
23616;BME280;11985;49.404;7.734;2023-10-08T00:46:44;98181.22;;;13.12;100.00
23616;BME280;11985;49.404;7.734;2023-10-08T00:51:50;98174.69;;;13.08;100.00
23616;BME280;11985;49.404;7.734;2023-10-08T00:57:00;98173.88;;;13.07;100.00
23616;BME280;11985;49.404;7.734;2023-10-08T01:02:07;98168.56;;;13.07;100.00
23616;BME280;11985;49.404;7.734;2023-10-08T01:07:15;98168.19;;;13.10;100.00
23616;BME280;11985;49.404;7.734;2023-10-08T01:12:18;98161.66;;;13.06;100.00
23616;BME280;11985;49.404;7.734;2023-10-08T01:17:25;98170.56;;;12.99;100.00
23616;BME280;11985;49.404;7.734;2023-10-08T01:22:33;98158.56;;;12.96;100.00
23616;BME280;11985;49.404;7.734;2023-10-08T01:27:34;98154.69;;;12.92;100.00
23616;BME280;11985;49.404;7.734;2023-10-08T01:32:37;98141.88;;;12.89;100.00
23616;BME280;11985;49.404;7.734;2023-10-08T01:37:41;98139.41;;;12.87;100.00
23616;BME280;11985;49.404;7.734;2023-10-08T01:42:44;98137.56;;;12.81;100.00
23616;BME280;11985;49.404;7.734;2023-10-08T01:47:46;98139.81;;;12.78;100.00
23616;BME280;11985;49.404;7.734;2023-10-08T01:52:53;98142.84;;;12.75;100.00
23616;BME280;11985;49.404;7.734;2023-10-08T01:57:54;98146.88;;;12.71;100.00
23616;BME280;11985;49.404;7.734;2023-10-08T02:02:56;98136.72;;;12.67;100.00
23616;BME280;11985;49.404;7.734;2023-10-08T02:08:01;98133.06;;;12.68;100.00
23616;BME280;11985;49.404;7.734;2023-10-08T02:13:04;98135.47;;;12.63;100.00
23616;BME280;11985;49.404;7.734;2023-10-08T02:18:06;98145.22;;;12.56;100.00
23616;BME280;11985;49.404;7.734;2023-10-08T02:23:10;98144.34;;;12.49;100.00
23616;BME280;11985;49.404;7.734;2023-10-08T02:28:12;98138.66;;;12.46;100.00
23616;BME280;11985;49.404;7.734;2023-10-08T02:33:16;98138.22;;;12.42;100.00
23616;BME280;11985;49.404;7.734;2023-10-08T02:38:19;98141.88;;;12.41;100.00
23616;BME280;11985;49.404;7.734;2023-10-08T02:43:21;98137.84;;;12.45;100.00
23616;BME280;11985;49.404;7.734;2023-10-08T02:48:23;98145.56;;;12.47;100.00
23616;BME280;11985;49.404;7.734;2023-10-08T02:53:26;98144.75;;;12.46;100.00
23616;BME280;11985;49.404;7.734;2023-10-08T02:58:30;98150.81;;;12.40;100.00
23616;BME280;11985;49.404;7.734;2023-10-08T03:03:33;98139.41;;;12.33;100.00
23616;BME280;11985;49.404;7.734;2023-10-08T03:08:38;98145.84;;;12.24;100.00
23616;BME280;11985;49.404;7.734;2023-10-08T03:13:44;98140.09;;;12.13;100.00
23616;BME280;11985;49.404;7.734;2023-10-08T03:18:46;98144.00;;;12.18;100.00
23616;BME280;11985;49.404;7.734;2023-10-08T03:23:51;98149.03;;;12.12;100.00
23616;BME280;11985;49.404;7.734;2023-10-08T03:28:58;98136.81;;;12.05;100.00
23616;BME280;11985;49.404;7.734;2023-10-08T03:34:00;98141.25;;;12.04;100.00
23616;BME280;11985;49.404;7.734;2023-10-08T03:39:04;98142.03;;;11.98;100.00
23616;BME280;11985;49.404;7.734;2023-10-08T03:44:13;98135.53;;;11.94;100.00
23616;BME280;11985;49.404;7.734;2023-10-08T03:49:17;98126.56;;;11.88;100.00
23616;BME280;11985;49.404;7.734;2023-10-08T03:54:26;98118.81;;;11.87;100.00
23616;BME280;11985;49.404;7.734;2023-10-08T03:59:34;98122.47;;;11.86;100.00
23616;BME280;11985;49.404;7.734;2023-10-08T04:04:41;98126.13;;;11.85;100.00
23616;BME280;11985;49.404;7.734;2023-10-08T04:09:53;98133.41;;;11.83;100.00
23616;BME280;11985;49.404;7.734;2023-10-08T04:15:17;98130.09;;;11.81;100.00
23616;BME280;11985;49.404;7.734;2023-10-08T04:20:20;98132.34;;;11.77;100.00
23616;BME280;11985;49.404;7.734;2023-10-08T04:25:40;98135.38;;;11.81;100.00
23616;BME280;11985;49.404;7.734;2023-10-08T04:30:43;98127.22;;;11.76;100.00
23616;BME280;11985;49.404;7.734;2023-10-08T04:35:45;98137.78;;;11.76;100.00
23616;BME280;11985;49.404;7.734;2023-10-08T04:40:52;98143.13;;;11.82;100.00
23616;BME280;11985;49.404;7.734;2023-10-08T04:45:54;98144.03;;;11.89;100.00
23616;BME280;11985;49.404;7.734;2023-10-08T04:50:57;98144.84;;;11.90;100.00
23616;BME280;11985;49.404;7.734;2023-10-08T04:56:06;98138.50;;;11.84;100.00
23616;BME280;11985;49.404;7.734;2023-10-08T05:01:13;98119.06;;;11.71;100.00
23616;BME280;11985;49.404;7.734;2023-10-08T05:06:18;98126.28;;;11.55;100.00
23616;BME280;11985;49.404;7.734;2023-10-08T05:11:41;98118.22;;;11.42;100.00
23616;BME280;11985;49.404;7.734;2023-10-08T05:17:08;98109.81;;;11.32;100.00
23616;BME280;11985;49.404;7.734;2023-10-08T05:22:22;98119.50;;;11.25;100.00
23616;BME280;11985;49.404;7.734;2023-10-08T05:27:47;98117.38;;;11.14;100.00
23616;BME280;11985;49.404;7.734;2023-10-08T05:32:58;98114.88;;;11.05;100.00
23616;BME280;11985;49.404;7.734;2023-10-08T05:38:24;98120.47;;;11.17;100.00
23616;BME280;11985;49.404;7.734;2023-10-08T05:43:50;98125.22;;;11.28;100.00
23616;BME280;11985;49.404;7.734;2023-10-08T05:49:14;98145.13;;;11.31;100.00
23616;BME280;11985;49.404;7.734;2023-10-08T05:54:38;98157.13;;;11.33;100.00
23616;BME280;11985;49.404;7.734;2023-10-08T05:59:59;98163.47;;;11.39;100.00
23616;BME280;11985;49.404;7.734;2023-10-08T06:05:14;98158.09;;;11.32;100.00
23616;BME280;11985;49.404;7.734;2023-10-08T06:10:25;98178.72;;;11.22;100.00
23616;BME280;11985;49.404;7.734;2023-10-08T06:15:46;98183.28;;;11.14;100.00
23616;BME280;11985;49.404;7.734;2023-10-08T06:20:52;98171.22;;;11.04;100.00
23616;BME280;11985;49.404;7.734;2023-10-08T06:25:55;98170.72;;;10.94;100.00
23616;BME280;11985;49.404;7.734;2023-10-08T06:31:01;98178.34;;;10.89;100.00
23616;BME280;11985;49.404;7.734;2023-10-08T06:36:06;98182.16;;;10.87;100.00
23616;BME280;11985;49.404;7.734;2023-10-08T06:41:13;98188.97;;;10.96;100.00
23616;BME280;11985;49.404;7.734;2023-10-08T06:46:19;98200.19;;;11.19;100.00
23616;BME280;11985;49.404;7.734;2023-10-08T06:51:22;98199.19;;;11.42;100.00
23616;BME280;11985;49.404;7.734;2023-10-08T06:56:26;98187.94;;;11.54;100.00
23616;BME280;11985;49.404;7.734;2023-10-08T07:01:29;98205.03;;;11.58;100.00
23616;BME280;11985;49.404;7.734;2023-10-08T07:06:40;98203.50;;;11.71;100.00
23616;BME280;11985;49.404;7.734;2023-10-08T07:11:43;98196.38;;;11.86;100.00
23616;BME280;11985;49.404;7.734;2023-10-08T07:16:47;98192.44;;;12.03;100.00
23616;BME280;11985;49.404;7.734;2023-10-08T07:21:52;98203.34;;;12.22;100.00
23616;BME280;11985;49.404;7.734;2023-10-08T07:27:03;98207.94;;;12.41;100.00
23616;BME280;11985;49.404;7.734;2023-10-08T07:32:10;98217.72;;;12.47;100.00
23616;BME280;11985;49.404;7.734;2023-10-08T07:37:12;98217.72;;;12.47;100.00
23616;BME280;11985;49.404;7.734;2023-10-08T07:42:16;98228.22;;;12.68;100.00
23616;BME280;11985;49.404;7.734;2023-10-08T07:47:19;98234.03;;;12.99;100.00
23616;BME280;11985;49.404;7.734;2023-10-08T07:52:21;98237.78;;;13.17;100.00
23616;BME280;11985;49.404;7.734;2023-10-08T07:57:23;98236.75;;;13.12;100.00
23616;BME280;11985;49.404;7.734;2023-10-08T08:02:28;98247.53;;;13.10;100.00
23616;BME280;11985;49.404;7.734;2023-10-08T08:07:30;98251.28;;;13.23;100.00
23616;BME280;11985;49.404;7.734;2023-10-08T08:12:34;98265.34;;;13.43;100.00
23616;BME280;11985;49.404;7.734;2023-10-08T08:17:37;98259.53;;;13.61;100.00
23616;BME280;11985;49.404;7.734;2023-10-08T08:22:39;98263.22;;;13.80;100.00
23616;BME280;11985;49.404;7.734;2023-10-08T08:27:41;98262.81;;;13.96;100.00
23616;BME280;11985;49.404;7.734;2023-10-08T08:32:46;98257.75;;;14.27;100.00
23616;BME280;11985;49.404;7.734;2023-10-08T08:37:48;98255.06;;;14.54;100.00
23616;BME280;11985;49.404;7.734;2023-10-08T08:42:51;98257.47;;;14.75;100.00
23616;BME280;11985;49.404;7.734;2023-10-08T08:47:56;98262.75;;;14.89;100.00
23616;BME280;11985;49.404;7.734;2023-10-08T08:52:59;98273.13;;;14.97;100.00
23616;BME280;11985;49.404;7.734;2023-10-08T08:58:03;98284.72;;;15.09;100.00
23616;BME280;11985;49.404;7.734;2023-10-08T09:03:12;98285.06;;;15.32;100.00
23616;BME280;11985;49.404;7.734;2023-10-08T09:08:14;98287.47;;;15.41;100.00
23616;BME280;11985;49.404;7.734;2023-10-08T09:13:19;98280.03;;;15.56;100.00
23616;BME280;11985;49.404;7.734;2023-10-08T09:18:24;98277.66;;;15.79;100.00
23616;BME280;11985;49.404;7.734;2023-10-08T09:23:29;98272.47;;;15.91;100.00
23616;BME280;11985;49.404;7.734;2023-10-08T09:28:31;98280.91;;;16.13;100.00
23616;BME280;11985;49.404;7.734;2023-10-08T09:33:36;98286.88;;;16.33;100.00
23616;BME280;11985;49.404;7.734;2023-10-08T09:38:37;98285.81;;;16.59;100.00
23616;BME280;11985;49.404;7.734;2023-10-08T09:43:40;98282.03;;;16.74;100.00
23616;BME280;11985;49.404;7.734;2023-10-08T09:48:49;98273.72;;;16.88;100.00
23616;BME280;11985;49.404;7.734;2023-10-08T09:54:02;98264.31;;;16.86;100.00
23616;BME280;11985;49.404;7.734;2023-10-08T09:59:05;98274.44;;;16.96;100.00
23616;BME280;11985;49.404;7.734;2023-10-08T10:04:10;98277.09;;;17.14;100.00
23616;BME280;11985;49.404;7.734;2023-10-08T10:09:20;98261.69;;;17.34;100.00
23616;BME280;11985;49.404;7.734;2023-10-08T10:14:22;98262.97;;;17.62;100.00
23616;BME280;11985;49.404;7.734;2023-10-08T10:19:26;98268.78;;;17.71;100.00
23616;BME280;11985;49.404;7.734;2023-10-08T10:24:33;98273.94;;;17.72;100.00
23616;BME280;11985;49.404;7.734;2023-10-08T10:29:35;98268.97;;;17.87;100.00
23616;BME280;11985;49.404;7.734;2023-10-08T10:34:39;98274.16;;;18.24;100.00
23616;BME280;11985;49.404;7.734;2023-10-08T10:39:41;98268.38;;;18.62;100.00
23616;BME280;11985;49.404;7.734;2023-10-08T10:44:42;98259.81;;;18.84;100.00
23616;BME280;11985;49.404;7.734;2023-10-08T10:49:48;98256.53;;;19.05;100.00
23616;BME280;11985;49.404;7.734;2023-10-08T10:54:53;98254.53;;;19.12;97.21
23616;BME280;11985;49.404;7.734;2023-10-08T11:00:03;98260.50;;;19.31;96.45
23616;BME280;11985;49.404;7.734;2023-10-08T11:05:29;98263.59;;;19.40;94.82
23616;BME280;11985;49.404;7.734;2023-10-08T11:10:31;98257.72;;;19.66;94.64
23616;BME280;11985;49.404;7.734;2023-10-08T11:15:33;98248.16;;;19.70;92.71
23616;BME280;11985;49.404;7.734;2023-10-08T11:20:42;98256.28;;;19.92;92.10
23616;BME280;11985;49.404;7.734;2023-10-08T11:25:55;98259.22;;;20.08;89.58
23616;BME280;11985;49.404;7.734;2023-10-08T11:31:00;98247.56;;;20.14;87.86
23616;BME280;11985;49.404;7.734;2023-10-08T11:36:09;98241.22;;;20.20;87.18
23616;BME280;11985;49.404;7.734;2023-10-08T11:41:18;98230.69;;;20.30;86.18
23616;BME280;11985;49.404;7.734;2023-10-08T11:46:23;98232.88;;;20.33;85.45
23616;BME280;11985;49.404;7.734;2023-10-08T11:51:29;98236.19;;;20.57;84.72
23616;BME280;11985;49.404;7.734;2023-10-08T11:56:31;98238.84;;;20.74;83.51
23616;BME280;11985;49.404;7.734;2023-10-08T12:01:33;98239.06;;;20.89;83.41
23616;BME280;11985;49.404;7.734;2023-10-08T12:06:37;98243.34;;;20.90;80.66
23616;BME280;11985;49.404;7.734;2023-10-08T12:11:38;98230.91;;;21.01;80.16
23616;BME280;11985;49.404;7.734;2023-10-08T12:16:40;98227.06;;;21.19;78.93
23616;BME280;11985;49.404;7.734;2023-10-08T12:21:44;98238.56;;;21.36;77.88
23616;BME280;11985;49.404;7.734;2023-10-08T12:26:46;98228.75;;;21.47;76.99
23616;BME280;11985;49.404;7.734;2023-10-08T12:31:49;98221.09;;;21.55;76.12
23616;BME280;11985;49.404;7.734;2023-10-08T12:36:55;98221.19;;;21.66;75.43
23616;BME280;11985;49.404;7.734;2023-10-08T12:41:56;98224.41;;;21.68;74.96
23616;BME280;11985;49.404;7.734;2023-10-08T12:47:05;98224.59;;;21.88;74.99
23616;BME280;11985;49.404;7.734;2023-10-08T12:52:09;98230.03;;;21.98;73.49
23616;BME280;11985;49.404;7.734;2023-10-08T12:57:15;98234.00;;;22.18;72.33
23616;BME280;11985;49.404;7.734;2023-10-08T13:02:19;98226.13;;;22.48;71.60
23616;BME280;11985;49.404;7.734;2023-10-08T13:07:22;98219.75;;;22.59;70.32
23616;BME280;11985;49.404;7.734;2023-10-08T13:12:26;98216.03;;;22.60;69.10
23616;BME280;11985;49.404;7.734;2023-10-08T13:17:29;98207.22;;;22.28;69.19
23616;BME280;11985;49.404;7.734;2023-10-08T13:22:32;98217.75;;;22.34;68.28
23616;BME280;11985;49.404;7.734;2023-10-08T13:27:34;98221.50;;;22.33;67.09
23616;BME280;11985;49.404;7.734;2023-10-08T13:32:39;98209.91;;;22.28;67.28
23616;BME280;11985;49.404;7.734;2023-10-08T13:37:42;98204.84;;;22.36;68.45
23616;BME280;11985;49.404;7.734;2023-10-08T13:42:43;98204.09;;;22.41;67.81
23616;BME280;11985;49.404;7.734;2023-10-08T13:47:45;98190.63;;;22.36;67.46
23616;BME280;11985;49.404;7.734;2023-10-08T13:52:49;98190.47;;;22.10;67.29
23616;BME280;11985;49.404;7.734;2023-10-08T13:57:53;98193.09;;;22.05;68.20
23616;BME280;11985;49.404;7.734;2023-10-08T14:02:54;98181.75;;;22.30;69.08
23616;BME280;11985;49.404;7.734;2023-10-08T14:07:58;98177.38;;;22.19;69.67
23616;BME280;11985;49.404;7.734;2023-10-08T14:13:02;98170.44;;;21.91;69.60
23616;BME280;11985;49.404;7.734;2023-10-08T14:18:04;98178.06;;;22.04;71.06
23616;BME280;11985;49.404;7.734;2023-10-08T14:23:10;98174.22;;;21.95;71.66
23616;BME280;11985;49.404;7.734;2023-10-08T14:28:11;98169.44;;;22.02;72.49
23616;BME280;11985;49.404;7.734;2023-10-08T14:33:22;98161.91;;;22.36;72.95
23616;BME280;11985;49.404;7.734;2023-10-08T14:38:31;98158.50;;;22.51;71.25
23616;BME280;11985;49.404;7.734;2023-10-08T14:43:51;98156.97;;;22.60;70.77
23616;BME280;11985;49.404;7.734;2023-10-08T14:48:52;98153.91;;;22.94;70.86
23616;BME280;11985;49.404;7.734;2023-10-08T14:53:57;98153.38;;;23.02;70.47
23616;BME280;11985;49.404;7.734;2023-10-08T14:58:59;98144.84;;;23.36;71.44
23616;BME280;11985;49.404;7.734;2023-10-08T15:04:01;98147.00;;;23.29;69.88
23616;BME280;11985;49.404;7.734;2023-10-08T15:09:05;98145.13;;;23.44;70.31
23616;BME280;11985;49.404;7.734;2023-10-08T15:14:09;98137.31;;;23.53;68.72
23616;BME280;11985;49.404;7.734;2023-10-08T15:19:11;98131.44;;;23.56;68.44
23616;BME280;11985;49.404;7.734;2023-10-08T15:24:17;98132.22;;;23.97;69.25
23616;BME280;11985;49.404;7.734;2023-10-08T15:29:22;98126.50;;;24.50;67.72
23616;BME280;11985;49.404;7.734;2023-10-08T15:34:26;98121.81;;;25.25;65.14
23616;BME280;11985;49.404;7.734;2023-10-08T15:39:30;98126.69;;;25.97;65.82
23616;BME280;11985;49.404;7.734;2023-10-08T15:44:31;98126.00;;;25.81;63.09
23616;BME280;11985;49.404;7.734;2023-10-08T15:49:34;98125.25;;;24.87;62.30
23616;BME280;11985;49.404;7.734;2023-10-08T15:54:36;98129.00;;;23.44;62.42
23616;BME280;11985;49.404;7.734;2023-10-08T15:59:38;98128.03;;;22.83;65.55
23616;BME280;11985;49.404;7.734;2023-10-08T16:04:40;98127.22;;;22.25;69.15
23616;BME280;11985;49.404;7.734;2023-10-08T16:09:43;98119.44;;;21.86;73.89
23616;BME280;11985;49.404;7.734;2023-10-08T16:14:44;98125.31;;;21.46;79.07
23616;BME280;11985;49.404;7.734;2023-10-08T16:19:45;98121.28;;;20.94;84.39
23616;BME280;11985;49.404;7.734;2023-10-08T16:24:49;98114.72;;;20.41;88.71
23616;BME280;11985;49.404;7.734;2023-10-08T16:29:50;98118.88;;;20.10;91.80
23616;BME280;11985;49.404;7.734;2023-10-08T16:34:54;98118.66;;;19.78;95.77
23616;BME280;11985;49.404;7.734;2023-10-08T16:39:57;98120.41;;;19.39;98.92
23616;BME280;11985;49.404;7.734;2023-10-08T16:44:59;98118.53;;;18.94;100.00
23616;BME280;11985;49.404;7.734;2023-10-08T16:50:01;98116.56;;;18.49;100.00
23616;BME280;11985;49.404;7.734;2023-10-08T16:55:04;98107.56;;;18.15;100.00
23616;BME280;11985;49.404;7.734;2023-10-08T17:00:07;98113.84;;;17.85;100.00
23616;BME280;11985;49.404;7.734;2023-10-08T17:05:12;98119.44;;;17.65;100.00
23616;BME280;11985;49.404;7.734;2023-10-08T17:10:16;98126.72;;;17.47;100.00
23616;BME280;11985;49.404;7.734;2023-10-08T17:15:18;98111.88;;;17.27;100.00
23616;BME280;11985;49.404;7.734;2023-10-08T17:20:20;98114.59;;;17.09;100.00
23616;BME280;11985;49.404;7.734;2023-10-08T17:25:24;98116.50;;;16.90;100.00
23616;BME280;11985;49.404;7.734;2023-10-08T17:30:26;98112.44;;;16.69;100.00
23616;BME280;11985;49.404;7.734;2023-10-08T17:35:28;98119.41;;;16.52;100.00
23616;BME280;11985;49.404;7.734;2023-10-08T17:40:30;98114.81;;;16.41;100.00
23616;BME280;11985;49.404;7.734;2023-10-08T17:45:32;98117.06;;;16.44;100.00
23616;BME280;11985;49.404;7.734;2023-10-08T17:50:35;98115.41;;;16.43;100.00
23616;BME280;11985;49.404;7.734;2023-10-08T17:55:39;98120.56;;;16.37;100.00
23616;BME280;11985;49.404;7.734;2023-10-08T18:00:40;98116.44;;;16.23;100.00
23616;BME280;11985;49.404;7.734;2023-10-08T18:05:44;98122.34;;;16.07;100.00
23616;BME280;11985;49.404;7.734;2023-10-08T18:10:47;98117.16;;;15.94;100.00
23616;BME280;11985;49.404;7.734;2023-10-08T18:15:49;98122.34;;;15.82;100.00
23616;BME280;11985;49.404;7.734;2023-10-08T18:20:51;98118.78;;;15.70;100.00
23616;BME280;11985;49.404;7.734;2023-10-08T18:25:55;98110.69;;;15.58;100.00
23616;BME280;11985;49.404;7.734;2023-10-08T18:30:57;98125.38;;;15.61;100.00
23616;BME280;11985;49.404;7.734;2023-10-08T18:36:04;98111.72;;;15.57;100.00
23616;BME280;11985;49.404;7.734;2023-10-08T18:41:07;98116.53;;;15.42;100.00
23616;BME280;11985;49.404;7.734;2023-10-08T18:46:09;98112.38;;;15.27;100.00
23616;BME280;11985;49.404;7.734;2023-10-08T18:51:13;98114.50;;;15.12;100.00
23616;BME280;11985;49.404;7.734;2023-10-08T18:56:16;98108.06;;;14.95;100.00
23616;BME280;11985;49.404;7.734;2023-10-08T19:01:19;98098.19;;;14.77;100.00
23616;BME280;11985;49.404;7.734;2023-10-08T19:06:26;98101.31;;;14.61;100.00
23616;BME280;11985;49.404;7.734;2023-10-08T19:11:31;98092.38;;;14.48;100.00
23616;BME280;11985;49.404;7.734;2023-10-08T19:16:33;98098.94;;;14.33;100.00
23616;BME280;11985;49.404;7.734;2023-10-08T19:21:34;98090.22;;;14.19;100.00
23616;BME280;11985;49.404;7.734;2023-10-08T19:26:39;98083.94;;;14.07;100.00
23616;BME280;11985;49.404;7.734;2023-10-08T19:31:41;98081.50;;;13.92;100.00
23616;BME280;11985;49.404;7.734;2023-10-08T19:36:42;98084.38;;;13.84;100.00
23616;BME280;11985;49.404;7.734;2023-10-08T19:41:46;98087.63;;;13.86;100.00
23616;BME280;11985;49.404;7.734;2023-10-08T19:46:48;98085.97;;;13.98;100.00
23616;BME280;11985;49.404;7.734;2023-10-08T19:51:49;98083.53;;;13.96;100.00
23616;BME280;11985;49.404;7.734;2023-10-08T19:56:53;98078.25;;;13.96;100.00
23616;BME280;11985;49.404;7.734;2023-10-08T20:01:56;98084.38;;;13.90;100.00
23616;BME280;11985;49.404;7.734;2023-10-08T20:06:57;98074.19;;;13.81;100.00
23616;BME280;11985;49.404;7.734;2023-10-08T20:12:00;98073.19;;;13.68;100.00
23616;BME280;11985;49.404;7.734;2023-10-08T20:17:04;98078.09;;;13.58;100.00
23616;BME280;11985;49.404;7.734;2023-10-08T20:22:08;98069.75;;;13.48;100.00
23616;BME280;11985;49.404;7.734;2023-10-08T20:27:13;98071.38;;;13.36;100.00
23616;BME280;11985;49.404;7.734;2023-10-08T20:32:15;98068.31;;;13.26;100.00
23616;BME280;11985;49.404;7.734;2023-10-08T20:37:19;98066.88;;;13.16;100.00
23616;BME280;11985;49.404;7.734;2023-10-08T20:42:23;98053.22;;;13.06;100.00
23616;BME280;11985;49.404;7.734;2023-10-08T20:47:25;98055.47;;;12.96;100.00
23616;BME280;11985;49.404;7.734;2023-10-08T20:52:27;98046.88;;;12.87;100.00
23616;BME280;11985;49.404;7.734;2023-10-08T20:57:31;98048.53;;;12.95;100.00
23616;BME280;11985;49.404;7.734;2023-10-08T21:02:33;98044.88;;;13.09;100.00
23616;BME280;11985;49.404;7.734;2023-10-08T21:07:35;98049.56;;;13.14;100.00
23616;BME280;11985;49.404;7.734;2023-10-08T21:12:40;98045.69;;;13.03;100.00
23616;BME280;11985;49.404;7.734;2023-10-08T21:17:42;98044.06;;;13.02;100.00
23616;BME280;11985;49.404;7.734;2023-10-08T21:22:46;98039.59;;;12.96;100.00
23616;BME280;11985;49.404;7.734;2023-10-08T21:27:52;98040.78;;;12.87;100.00
23616;BME280;11985;49.404;7.734;2023-10-08T21:32:55;98040.78;;;12.80;100.00
23616;BME280;11985;49.404;7.734;2023-10-08T21:37:58;98042.81;;;12.72;100.00
23616;BME280;11985;49.404;7.734;2023-10-08T21:43:00;98038.50;;;12.64;100.00
23616;BME280;11985;49.404;7.734;2023-10-08T21:48:03;98042.38;;;12.55;100.00
23616;BME280;11985;49.404;7.734;2023-10-08T21:53:06;98034.97;;;12.43;100.00
23616;BME280;11985;49.404;7.734;2023-10-08T21:58:09;98035.38;;;12.34;100.00
23616;BME280;11985;49.404;7.734;2023-10-08T22:03:11;98036.19;;;12.28;100.00
23616;BME280;11985;49.404;7.734;2023-10-08T22:08:13;98029.19;;;12.13;100.00
23616;BME280;11985;49.404;7.734;2023-10-08T22:13:17;98027.34;;;12.07;100.00
23616;BME280;11985;49.404;7.734;2023-10-08T22:18:20;98026.31;;;12.02;100.00
23616;BME280;11985;49.404;7.734;2023-10-08T22:23:28;98019.97;;;11.96;100.00
23616;BME280;11985;49.404;7.734;2023-10-08T22:28:37;98009.00;;;11.93;100.00
23616;BME280;11985;49.404;7.734;2023-10-08T22:33:42;97998.41;;;11.86;100.00
23616;BME280;11985;49.404;7.734;2023-10-08T22:38:48;97989.63;;;11.79;100.00
23616;BME280;11985;49.404;7.734;2023-10-08T22:43:54;97988.13;;;11.70;100.00
23616;BME280;11985;49.404;7.734;2023-10-08T22:48:56;97988.91;;;11.63;100.00
23616;BME280;11985;49.404;7.734;2023-10-08T22:54:03;97975.50;;;11.58;100.00
23616;BME280;11985;49.404;7.734;2023-10-08T22:59:09;97969.13;;;11.46;100.00
23616;BME280;11985;49.404;7.734;2023-10-08T23:04:11;97972.69;;;11.32;100.00
23616;BME280;11985;49.404;7.734;2023-10-08T23:09:14;97971.84;;;11.25;100.00
23616;BME280;11985;49.404;7.734;2023-10-08T23:14:17;97971.19;;;11.16;100.00
23616;BME280;11985;49.404;7.734;2023-10-08T23:19:21;97969.34;;;11.17;100.00
23616;BME280;11985;49.404;7.734;2023-10-08T23:24:22;97968.47;;;11.09;100.00
23616;BME280;11985;49.404;7.734;2023-10-08T23:29:25;97966.84;;;11.08;100.00
23616;BME280;11985;49.404;7.734;2023-10-08T23:34:27;97960.97;;;11.06;100.00
23616;BME280;11985;49.404;7.734;2023-10-08T23:39:33;97962.59;;;11.07;100.00
23616;BME280;11985;49.404;7.734;2023-10-08T23:44:37;97961.56;;;11.08;100.00
23616;BME280;11985;49.404;7.734;2023-10-08T23:49:41;97959.59;;;11.10;100.00
23616;BME280;11985;49.404;7.734;2023-10-08T23:54:53;97942.50;;;11.06;100.00
